Aviation Digital Data Service (ADDS)

Output produced by METARs form (1914 UTC 30 July 2014)
found at http://aviationweather.gov/adds/metars/
 
KALB 301720Z 3018/3118 18005KT P6SM BKN050 
     FM310200 VRB03KT P6SM BKN250 
     FM310600 VRB03KT P6SM BKN060 
     FM311000 18005KT P6SM VCSH BKN040 
     PROB30 3112/3118 3SM TSRA OVC030CB